Time;durP1;ratioP1;P1;durP2;ratioP2;P2;SDS_P1;SDS_P2;PMS_P1;PMS_P2;Temp;Humidity;BMP_temperature;BMP_pressure;BME280_temperature;BME280_humidity;BME280_pressure;Samples;Min_cycle;Max_cycle;Signal;HPM_P1;HPM_P2
2022/08/04 00:00:09;;;;;;;;;3.00;2.00;;;;;27.86;42.43;100908.81;6206589;23;44781;-86
2022/08/04 00:02:46;;;;;;;;;2.33;2.33;;;;;27.83;41.80;100904.50;6208035;22;45122;-86
2022/08/04 00:15:39;;;;;;;;;2.67;2.67;;;;;27.71;42.69;100898.09;6097417;23;45300;-90
2022/08/04 00:38:38;;;;;;;;;;;;;;;;;;;;;
2022/08/04 01:25:13;;;;;;;;;;;;;;;;;;;;;
2022/08/04 03:10:46;;;;;;;;;;;;;;;;;;;;;
2022/08/04 03:24:45;;;;;;;;;;;;;;;;;;;;;
2022/08/04 03:39:17;;;;;;;;;;;;;;;;;;;;;
2022/08/04 03:42:31;;;;;;;;;;;;;;;;;;;;;
2022/08/04 04:03:43;;;;;;;;;;;;;;;;;;;;;
2022/08/04 05:11:37;;;;;;;;;;;;;;;;;;;;;
2022/08/04 05:14:28;;;;;;;;;3.00;1.67;;;;;24.21;50.70;100977.34;5922575;23;75017;-85
2022/08/04 05:17:27;;;;;;;;;2.00;2.00;;;;;24.10;50.72;100957.41;6128763;23;45499;-85
2022/08/04 05:19:59;;;;;;;;;4.00;3.00;;;;;24.09;50.68;100953.00;6213348;22;45479;-84
2022/08/04 05:23:22;;;;;;;;;3.00;3.00;;;;;24.05;50.69;100957.66;6307386;22;45267;-83
2022/08/04 05:25:58;;;;;;;;;3.00;3.00;;;;;23.94;50.99;100955.56;6183914;23;47199;-87
2022/08/04 05:28:30;;;;;;;;;2.67;2.33;;;;;23.98;51.13;100972.44;6282384;22;45240;-86
2022/08/04 05:31:09;;;;;;;;;4.67;3.00;;;;;23.90;51.22;100989.00;6282141;22;45374;-86
2022/08/04 05:33:53;;;;;;;;;4.67;3.00;;;;;23.95;51.27;101002.16;6307187;22;45389;-83
2022/08/04 05:36:24;;;;;;;;;5.00;4.00;;;;;23.91;51.13;101000.63;6308780;22;45358;-84
2022/08/04 05:38:58;;;;;;;;;4.00;4.00;;;;;23.90;51.31;100980.06;6307192;22;45380;-85
2022/08/04 05:41:26;;;;;;;;;2.00;2.00;;;;;23.91;51.67;100977.28;6309997;22;45330;-85
2022/08/04 05:43:52;;;;;;;;;5.25;4.50;;;;;23.90;51.74;100978.25;6307576;22;45789;-84
2022/08/04 05:46:18;;;;;;;;;4.00;4.00;;;;;23.88;52.15;100979.28;6309340;22;46131;-84
2022/08/04 05:48:45;;;;;;;;;3.25;3.25;;;;;23.88;51.68;100958.63;6307684;22;45274;-84
2022/08/04 05:51:12;;;;;;;;;3.25;3.25;;;;;23.95;51.30;100949.25;6309599;22;45163;-84
2022/08/04 05:53:43;;;;;;;;;5.00;5.00;;;;;24.01;51.39;100953.44;6310576;22;45453;-87
2022/08/04 05:56:10;;;;;;;;;3.67;3.00;;;;;23.96;51.56;100939.38;6282775;22;47105;-84
2022/08/04 05:58:37;;;;;;;;;4.00;4.00;;;;;24.06;51.72;100959.41;6282904;22;45222;-86
2022/08/04 06:01:07;;;;;;;;;3.33;3.33;;;;;24.09;51.12;100951.16;6283206;22;45369;-84
2022/08/04 06:03:34;;;;;;;;;2.67;2.67;;;;;24.09;51.50;100940.41;6309891;22;45469;-85
2022/08/04 06:06:01;;;;;;;;;3.00;3.00;;;;;24.21;50.89;100949.59;6310122;22;48182;-86
2022/08/04 06:08:29;;;;;;;;;2.67;2.67;;;;;24.21;50.79;100965.72;6311352;22;45386;-85
2022/08/04 06:10:57;;;;;;;;;3.33;3.00;;;;;24.22;51.24;100980.94;6309914;22;45295;-87
2022/08/04 06:13:29;;;;;;;;;3.00;3.00;;;;;24.18;50.67;100973.97;6310359;22;45452;-86
2022/08/04 06:15:56;;;;;;;;;5.00;4.00;;;;;24.23;51.00;100963.81;6309510;22;46971;-87
2022/08/04 06:18:27;;;;;;;;;4.00;4.00;;;;;24.29;50.58;100959.91;6310357;22;45196;-83
2022/08/04 06:20:57;;;;;;;;;2.00;2.00;;;;;24.25;51.08;100955.69;6311152;22;45392;-86
2022/08/04 06:23:28;;;;;;;;;2.67;2.00;;;;;24.35;50.74;100963.13;6335852;22;45869;-85
2022/08/04 06:25:57;;;;;;;;;5.00;3.00;;;;;24.35;50.73;100956.84;6335697;22;47497;-87
2022/08/04 06:28:26;;;;;;;;;3.00;2.00;;;;;24.49;50.50;100967.75;6335459;22;45960;-87
2022/08/04 06:30:53;;;;;;;;;4.33;4.33;;;;;24.56;50.40;100965.53;6311638;22;45154;-86
2022/08/04 06:33:31;;;;;;;;;4.00;3.67;;;;;24.56;50.54;100957.47;6309903;22;45400;-85
2022/08/04 06:35:58;;;;;;;;;4.00;3.33;;;;;24.58;50.25;100966.34;6309632;22;46625;-87
2022/08/04 06:38:26;;;;;;;;;4.00;4.00;;;;;24.63;50.03;100967.78;6335365;22;45093;-82
2022/08/04 06:40:52;;;;;;;;;3.00;3.00;;;;;24.72;49.97;100969.06;6310463;22;45174;-86
2022/08/04 06:43:19;;;;;;;;;2.00;2.00;;;;;24.79;49.64;100975.81;6308584;22;45638;-86
2022/08/04 06:45:46;;;;;;;;;2.33;2.33;;;;;24.81;50.02;100982.00;6308516;22;48077;-83
2022/08/04 06:48:14;;;;;;;;;4.00;2.00;;;;;24.86;50.32;100979.91;6310623;22;45207;-84
2022/08/04 06:50:40;;;;;;;;;5.00;3.33;;;;;24.94;49.82;100978.56;6311757;22;45213;-85
2022/08/04 06:53:06;;;;;;;;;2.67;2.67;;;;;25.06;49.74;100994.00;6309892;22;45698;-84
2022/08/04 06:55:33;;;;;;;;;1.33;1.33;;;;;25.15;49.75;100988.06;6309842;22;46752;-84
2022/08/04 06:58:01;;;;;;;;;2.00;2.00;;;;;25.24;49.42;100989.34;6314482;22;45317;-83
2022/08/04 07:00:27;;;;;;;;;4.67;2.67;;;;;25.26;49.16;100982.91;6315498;22;45360;-84
2022/08/04 07:02:55;;;;;;;;;2.33;1.33;;;;;25.33;49.21;100985.22;6314835;22;45143;-84
2022/08/04 07:06:13;;;;;;;;;;;;;;;;;;;;;
2022/08/04 07:09:07;;;;;;;;;6.25;6.25;;;;;25.49;49.11;101003.03;6300539;22;71704;-84
2022/08/04 07:11:33;;;;;;;;;3.00;3.00;;;;;25.50;49.03;101001.19;6306770;22;45303;-77
2022/08/04 07:13:59;;;;;;;;;2.33;2.33;;;;;25.51;49.06;101002.94;6308338;22;45306;-77
2022/08/04 07:16:26;;;;;;;;;2.00;2.00;;;;;25.54;49.45;101008.16;6310480;22;45845;-78
2022/08/04 07:18:51;;;;;;;;;3.00;3.00;;;;;25.52;48.91;101010.06;6307468;22;45381;-78
2022/08/04 07:21:21;;;;;;;;;2.00;2.00;;;;;25.55;49.30;101001.78;6307993;22;45136;-77
2022/08/04 07:23:48;;;;;;;;;2.67;2.00;;;;;25.56;49.43;101008.06;6309437;22;45302;-78
2022/08/04 07:26:15;;;;;;;;;4.00;2.00;;;;;25.59;49.10;101006.03;6308028;22;47765;-78
2022/08/04 07:28:40;;;;;;;;;2.00;2.00;;;;;25.63;48.69;101004.88;6307640;22;45705;-78
2022/08/04 07:31:09;;;;;;;;;1.33;1.33;;;;;25.67;48.92;101010.94;6308276;22;45427;-79
2022/08/04 07:33:35;;;;;;;;;2.33;1.00;;;;;25.63;49.00;101015.66;6307758;22;45250;-77
2022/08/04 07:36:03;;;;;;;;;4.00;2.00;;;;;25.67;49.25;101025.28;6309353;22;46318;-77
2022/08/04 07:38:32;;;;;;;;;2.00;2.00;;;;;25.70;49.25;101046.69;6309652;22;45281;-79
2022/08/04 07:40:58;;;;;;;;;4.33;2.00;;;;;25.69;49.72;101050.34;6308025;22;45245;-77
2022/08/04 07:43:26;;;;;;;;;1.67;1.33;;;;;25.69;49.27;101025.22;6309809;22;45243;-77
2022/08/04 07:45:51;;;;;;;;;3.00;2.00;;;;;25.72;49.55;101036.66;6307465;22;46263;-77
2022/08/04 07:48:17;;;;;;;;;3.33;3.33;;;;;25.75;49.54;101049.97;6307458;22;45862;-77
2022/08/04 07:50:44;;;;;;;;;2.67;2.67;;;;;25.74;49.65;101048.22;6334156;22;45234;-78
2022/08/04 07:53:11;;;;;;;;;4.00;3.00;;;;;25.69;49.98;101046.78;6309943;22;45614;-78
2022/08/04 07:55:37;;;;;;;;;1.67;0.67;;;;;25.70;49.89;101046.69;6309518;22;45219;-78
2022/08/04 07:58:02;;;;;;;;;1.67;1.67;;;;;25.63;49.64;101039.06;6309856;22;45213;-78
2022/08/04 08:00:28;;;;;;;;;2.33;2.33;;;;;25.58;49.68;101052.84;6310182;22;45148;-78
2022/08/04 08:02:57;;;;;;;;;2.00;2.00;;;;;25.46;49.95;101054.44;6307984;22;45197;-78
2022/08/04 08:05:23;;;;;;;;;1.00;1.00;;;;;25.40;49.48;101059.38;6309411;22;45355;-77
2022/08/04 08:07:49;;;;;;;;;3.33;2.33;;;;;25.36;50.55;101069.44;6309674;22;45364;-77
2022/08/04 08:10:15;;;;;;;;;4.00;3.00;;;;;25.29;50.12;101082.44;6309963;22;45540;-76
2022/08/04 08:12:42;;;;;;;;;6.67;2.33;;;;;25.27;50.08;101091.56;6307658;22;45335;-77
2022/08/04 08:15:09;;;;;;;;;1.67;1.67;;;;;25.22;50.46;101077.50;6309152;22;45391;-77
2022/08/04 08:17:36;;;;;;;;;2.67;2.00;;;;;25.23;50.62;101076.53;6333545;22;45199;-77
2022/08/04 08:20:02;;;;;;;;;1.33;1.33;;;;;25.19;50.02;101077.69;6306993;22;45244;-77
2022/08/04 08:22:29;;;;;;;;;2.00;1.00;;;;;25.18;50.77;101067.84;6309592;22;45278;-77
2022/08/04 08:24:55;;;;;;;;;2.00;2.00;;;;;25.24;50.25;101078.28;6309293;22;45423;-77
2022/08/04 08:27:20;;;;;;;;;2.33;1.67;;;;;25.34;50.25;101094.75;6307506;22;45718;-77
2022/08/04 08:29:46;;;;;;;;;3.33;1.00;;;;;25.37;50.16;101094.56;6309942;22;45355;-77
2022/08/04 08:32:13;;;;;;;;;2.33;2.00;;;;;25.40;50.31;101092.56;6307479;22;45153;-77
2022/08/04 08:34:40;;;;;;;;;2.67;2.00;;;;;25.47;50.54;101099.34;6306984;22;46175;-77
2022/08/04 08:37:05;;;;;;;;;2.33;2.00;;;;;25.51;51.02;101089.22;6309499;22;45210;-77
2022/08/04 08:39:39;;;;;;;;;2.67;2.67;;;;;25.54;50.54;101067.47;6309724;22;45182;-76
2022/08/04 08:42:08;;;;;;;;;1.33;1.33;;;;;25.65;50.54;101062.28;6309503;22;45146;-77
2022/08/04 08:44:51;;;;;;;;;2.00;1.00;;;;;25.73;50.74;101067.19;6309125;22;45368;-76
2022/08/04 08:48:06;;;;;;;;;1.67;1.00;;;;;25.77;50.94;101060.66;6309286;22;45321;-76
2022/08/04 08:50:45;;;;;;;;;1.00;1.00;;;;;25.84;50.33;101058.47;6244422;22;45235;-75
2022/08/04 08:53:19;;;;;;;;;1.67;1.00;;;;;25.89;50.39;101067.16;6238170;22;45907;-75
2022/08/04 08:56:18;;;;;;;;;1.00;1.00;;;;;25.96;50.21;101069.38;6286289;22;46281;-75
2022/08/04 08:59:05;;;;;;;;;1.00;1.00;;;;;25.99;50.20;101078.22;6305844;22;45319;-76
2022/08/04 09:01:39;;;;;;;;;1.00;1.00;;;;;26.02;49.81;101087.00;6308136;22;45282;-75
2022/08/04 09:04:31;;;;;;;;;1.00;1.00;;;;;26.11;49.64;101089.09;6307063;22;45286;-75
2022/08/04 09:06:56;;;;;;;;;0.33;0.00;;;;;26.22;49.45;101084.84;6307152;22;48455;-76
2022/08/04 09:09:29;;;;;;;;;1.00;1.00;;;;;26.32;49.43;101084.16;6307848;22;45266;-76
2022/08/04 09:12:08;;;;;;;;;1.00;1.00;;;;;26.31;49.40;101074.34;6304376;22;45351;-76
2022/08/04 09:15:02;;;;;;;;;1.33;0.00;;;;;26.30;49.07;101078.03;6306865;22;45375;-76
2022/08/04 09:18:09;;;;;;;;;0.67;0.67;;;;;26.39;49.55;101103.56;6307698;22;45630;-76
2022/08/04 09:21:03;;;;;;;;;1.00;1.00;;;;;26.47;49.30;101093.13;6211623;22;45478;-77
2022/08/04 09:23:40;;;;;;;;;0.67;0.67;;;;;26.48;49.10;101093.97;6212037;22;45365;-77
2022/08/04 09:26:19;;;;;;;;;1.00;1.00;;;;;26.49;49.14;101093.91;6283023;22;45359;-76
2022/08/04 09:29:00;;;;;;;;;1.33;0.00;;;;;26.63;48.93;101101.13;6307402;22;48407;-76
2022/08/04 09:31:48;;;;;;;;;0.00;0.00;;;;;26.74;48.41;101098.56;6280001;22;45357;-77
2022/08/04 09:34:26;;;;;;;;;1.00;0.67;;;;;26.85;48.66;101105.97;6307973;22;45384;-78
2022/08/04 09:37:16;;;;;;;;;4.67;1.67;;;;;26.95;48.50;101112.50;6280111;22;45485;-77
2022/08/04 09:40:05;;;;;;;;;1.00;1.00;;;;;26.95;48.46;101115.22;6307365;22;46313;-77
2022/08/04 09:42:44;;;;;;;;;1.00;1.00;;;;;26.97;48.23;101109.69;6280706;22;45756;-77
2022/08/04 09:45:23;;;;;;;;;0.33;0.33;;;;;27.00;48.43;101115.78;6308122;22;45097;-77
2022/08/04 09:47:56;;;;;;;;;1.00;1.00;;;;;27.01;48.38;101119.34;6278491;22;45659;-77
2022/08/04 09:50:44;;;;;;;;;2.00;1.00;;;;;26.95;48.10;101112.50;6280338;22;46240;-77
2022/08/04 09:53:45;;;;;;;;;0.00;0.00;;;;;26.98;47.99;101106.03;6308949;22;45401;-77
2022/08/04 09:56:24;;;;;;;;;1.67;0.00;;;;;27.08;48.12;101100.84;6241981;22;45299;-79
2022/08/04 09:59:08;;;;;;;;;1.33;1.00;;;;;27.20;48.14;101097.38;6308756;22;45406;-80
2022/08/04 10:01:36;;;;;;;;;0.67;0.67;;;;;27.28;47.51;101090.47;6279979;22;47055;-80
2022/08/04 10:04:06;;;;;;;;;2.33;1.00;;;;;27.38;47.40;101096.09;6306527;22;45171;-78
2022/08/04 10:06:48;;;;;;;;;1.00;1.00;;;;;27.52;47.31;101107.81;6304999;22;45580;-79
2022/08/04 10:09:44;;;;;;;;;0.00;0.00;;;;;27.63;47.29;101102.53;6305759;22;45511;-78
2022/08/04 10:12:24;;;;;;;;;1.00;1.00;;;;;27.70;46.68;101106.53;6307919;22;45776;-79
2022/08/04 10:15:30;;;;;;;;;1.00;1.00;;;;;27.70;47.10;101104.69;6308341;22;45366;-80
2022/08/04 10:18:07;;;;;;;;;1.00;1.00;;;;;27.77;46.66;101107.81;6309703;22;45349;-79
2022/08/04 10:20:47;;;;;;;;;1.00;1.00;;;;;27.74;46.31;101108.03;6340213;22;45270;-78
2022/08/04 10:23:33;;;;;;;;;0.00;0.00;;;;;27.67;46.62;101101.34;6339917;22;46565;-78
2022/08/04 10:26:47;;;;;;;;;0.00;0.00;;;;;27.55;46.80;101108.47;6309525;22;45390;-78
2022/08/04 10:29:41;;;;;;;;;0.33;0.33;;;;;27.44;46.51;101100.22;6221031;22;45250;-77
2022/08/04 10:32:31;;;;;;;;;1.00;0.33;;;;;27.35;46.98;101103.56;6338650;22;45368;-77
2022/08/04 10:34:56;;;;;;;;;1.00;1.00;;;;;27.37;47.39;101107.03;6337500;22;46119;-77
2022/08/04 10:37:34;;;;;;;;;1.00;1.00;;;;;27.44;47.27;101089.41;6311073;22;46113;-77
2022/08/04 10:43:14;;;;;;;;;1.00;1.00;;;;;27.58;47.21;101069.50;6339713;22;45440;-75
2022/08/04 10:45:45;;;;;;;;;1.67;1.67;;;;;27.73;46.50;101079.25;6339228;22;45795;-77
2022/08/04 10:48:23;;;;;;;;;0.67;0.67;;;;;27.80;46.49;101079.69;6340208;22;45325;-77
2022/08/04 10:51:05;;;;;;;;;1.33;1.33;;;;;27.87;46.29;101068.34;6311450;22;45272;-78
2022/08/04 10:53:33;;;;;;;;;2.00;1.00;;;;;27.96;45.77;101074.97;6338759;22;45313;-77
2022/08/04 10:56:09;;;;;;;;;1.00;1.00;;;;;27.98;45.93;101078.41;6339330;22;46279;-78
2022/08/04 10:58:44;;;;;;;;;0.67;0.67;;;;;28.03;45.86;101078.09;6339468;22;45194;-78
2022/08/04 11:01:19;;;;;;;;;2.67;1.33;;;;;28.11;45.54;101079.25;6335880;22;45380;-79
2022/08/04 11:03:54;;;;;;;;;1.00;1.00;;;;;28.16;45.93;101084.34;6303761;22;45492;-81
2022/08/04 11:24:57;;;;;;;;;3.00;2.00;;;;;28.74;44.39;101066.53;6161881;22;47097;31
2022/08/04 11:27:45;;;;;;;;;1.00;1.00;;;;;28.82;44.05;101063.25;6150621;23;45183;-86
2022/08/04 11:30:13;;;;;;;;;1.33;1.33;;;;;28.95;44.30;101060.47;6101555;23;48321;-87
2022/08/04 11:32:50;;;;;;;;;1.00;1.00;;;;;29.08;43.65;101061.28;6150683;23;45287;-86
2022/08/04 11:35:39;;;;;;;;;0.67;0.67;;;;;29.24;43.67;101075.44;6127735;23;45318;-84
2022/08/04 11:38:45;;;;;;;;;1.00;1.00;;;;;29.42;43.08;101072.25;6174185;23;45212;-86
2022/08/04 11:41:19;;;;;;;;;4.00;4.00;;;;;29.58;42.93;101064.63;6127901;23;45444;-88
2022/08/04 11:43:54;;;;;;;;;1.00;1.00;;;;;29.71;42.47;101078.13;6151794;23;45137;-88
2022/08/04 11:46:27;;;;;;;;;1.00;1.00;;;;;29.79;42.54;101072.97;6125050;23;45152;-86
2022/08/04 11:49:01;;;;;;;;;2.00;2.00;;;;;29.96;41.82;101087.03;6150698;23;45185;-87
2022/08/04 11:51:27;;;;;;;;;4.00;3.67;;;;;30.10;41.79;101084.09;6151030;23;47839;-87
2022/08/04 11:53:54;;;;;;;;;3.00;3.00;;;;;30.22;41.23;101083.09;6125733;23;45940;-87
2022/08/04 11:56:20;;;;;;;;;2.33;2.33;;;;;30.32;41.00;101075.09;6120086;23;45209;-87
2022/08/04 11:58:46;;;;;;;;;2.00;2.00;;;;;30.46;40.50;101071.25;6150534;23;45119;-87
2022/08/04 12:01:23;;;;;;;;;2.00;2.00;;;;;30.58;40.44;101082.94;6101742;23;46637;-87
2022/08/04 12:03:52;;;;;;;;;2.00;2.00;;;;;30.71;40.45;101092.69;6160696;23;45882;-90
2022/08/04 12:06:24;;;;;;;;;2.00;2.00;;;;;30.86;40.05;101086.97;6150921;23;45282;-89
2022/08/04 12:09:10;;;;;;;;;2.00;2.00;;;;;30.97;39.95;101087.78;6151823;23;45901;-89
2022/08/04 12:11:47;;;;;;;;;1.00;1.00;;;;;31.24;39.62;101091.03;6115298;23;46750;-92
2022/08/04 12:14:32;;;;;;;;;2.00;1.00;;;;;31.46;39.24;101081.91;6152846;23;45593;-90
2022/08/04 12:16:59;;;;;;;;;2.00;2.00;;;;;31.70;38.95;101081.63;6151797;23;45217;-91
2022/08/04 12:19:45;;;;;;;;;1.67;1.67;;;;;32.02;38.77;101076.97;6120418;23;45660;-88
2022/08/04 12:22:17;;;;;;;;;2.67;2.67;;;;;32.33;37.44;101085.09;6150753;23;47100;-87
2022/08/04 12:24:58;;;;;;;;;1.67;1.67;;;;;32.54;37.25;101065.97;6163636;23;45612;-88
2022/08/04 12:27:32;;;;;;;;;1.33;1.33;;;;;32.85;37.32;101068.56;6150073;23;45239;-88
2022/08/04 12:29:58;;;;;;;;;0.33;0.33;;;;;32.91;37.27;101062.56;6106282;23;45405;-91
2022/08/04 12:32:47;;;;;;;;;2.33;1.00;;;;;32.81;36.53;101069.88;6154638;23;46918;-90
2022/08/04 12:35:22;;;;;;;;;2.00;2.00;;;;;32.72;36.85;101080.63;6106591;23;44656;-92
2022/08/04 12:37:55;;;;;;;;;1.33;1.33;;;;;32.62;37.34;101071.56;6156805;23;45261;-91
2022/08/04 12:40:26;;;;;;;;;3.00;3.00;;;;;32.56;37.11;101069.41;6155683;23;45294;-91
2022/08/04 12:43:18;;;;;;;;;3.00;1.67;;;;;32.53;37.33;101082.44;6106537;23;46347;-91
2022/08/04 12:45:47;;;;;;;;;2.00;2.00;;;;;32.55;37.11;101084.03;6155704;23;45191;-91
2022/08/04 12:48:14;;;;;;;;;1.33;1.33;;;;;32.61;37.26;101074.44;6132109;23;45262;-91
2022/08/04 12:50:40;;;;;;;;;2.00;1.00;;;;;32.68;36.77;101072.88;6105416;23;45270;-91
2022/08/04 12:53:13;;;;;;;;;1.00;1.00;;;;;32.75;36.69;101070.44;6105833;23;47990;-92
2022/08/04 12:55:46;;;;;;;;;3.00;2.00;;;;;32.73;36.36;101067.84;6154431;23;46100;-92
2022/08/04 12:58:17;;;;;;;;;2.00;2.00;;;;;32.65;36.30;101063.09;6156120;23;45187;-92
2022/08/04 13:00:44;;;;;;;;;3.67;2.33;;;;;32.66;36.35;101069.41;6130794;23;45362;-92
2022/08/04 13:03:13;;;;;;;;;2.00;2.00;;;;;32.63;36.60;101058.78;6157275;23;47976;-92
2022/08/04 13:05:40;;;;;;;;;1.33;1.33;;;;;32.64;36.03;101063.22;6157910;23;44795;-91
2022/08/04 13:08:07;;;;;;;;;1.00;1.00;;;;;32.60;36.45;101072.72;6108788;23;45609;-92
2022/08/04 13:10:38;;;;;;;;;3.00;1.33;;;;;32.55;36.08;101062.22;6156524;23;45282;-92
2022/08/04 13:13:04;;;;;;;;;2.00;2.00;;;;;32.58;36.38;101069.25;6109750;23;46963;-91
2022/08/04 13:15:32;;;;;;;;;3.00;3.00;;;;;32.62;36.54;101068.00;6137753;23;44869;-91
2022/08/04 13:18:08;;;;;;;;;3.00;2.00;;;;;32.64;36.44;101076.88;6136427;23;44673;-94
2022/08/04 13:20:36;;;;;;;;;2.00;1.33;;;;;32.75;36.03;101074.03;6137955;23;44767;-92
2022/08/04 13:23:07;;;;;;;;;2.33;2.00;;;;;32.86;36.31;101075.75;6158835;23;47102;-92
2022/08/04 13:25:39;;;;;;;;;2.00;2.00;;;;;32.97;36.03;101066.59;6159164;23;45219;-92
2022/08/04 13:28:07;;;;;;;;;3.00;2.00;;;;;33.01;35.83;101062.56;6111903;23;45283;-92
2022/08/04 13:30:33;;;;;;;;;1.33;1.00;;;;;33.18;35.83;101067.31;6161898;23;44849;-91
2022/08/04 13:33:01;;;;;;;;;4.00;3.00;;;;;33.20;35.61;101056.25;6107954;23;45133;-92
2022/08/04 13:35:28;;;;;;;;;1.33;1.00;;;;;33.20;35.84;101061.69;6160244;23;45112;-92
2022/08/04 13:37:55;;;;;;;;;1.00;1.00;;;;;33.20;35.69;101051.69;6136189;23;45435;-91
2022/08/04 13:40:23;;;;;;;;;2.00;2.00;;;;;33.29;35.44;101053.50;6156515;23;45445;-92
2022/08/04 13:42:51;;;;;;;;;1.00;1.00;;;;;33.32;35.59;101046.91;6158632;23;47050;-91
2022/08/04 13:45:22;;;;;;;;;1.67;1.67;;;;;33.34;35.47;101053.94;6106574;23;45518;-91
2022/08/04 13:47:50;;;;;;;;;2.00;2.00;;;;;33.34;35.00;101050.34;6153331;23;45406;-88
2022/08/04 13:50:28;;;;;;;;;3.00;3.00;;;;;33.42;34.99;101052.34;6136196;23;44862;-87
2022/08/04 13:52:56;;;;;;;;;2.00;2.00;;;;;33.50;34.82;101047.88;6100608;23;47013;-89
2022/08/04 13:55:23;;;;;;;;;2.00;2.00;;;;;33.54;35.08;101041.13;6101655;23;46321;-91
2022/08/04 13:57:55;;;;;;;;;1.67;1.67;;;;;33.63;34.46;101046.69;6103772;23;44687;-91
2022/08/04 14:00:21;;;;;;;;;2.00;2.00;;;;;33.68;34.22;101052.59;6152302;23;45353;-93
2022/08/04 14:02:59;;;;;;;;;2.00;2.00;;;;;33.68;34.12;101045.28;6153045;23;48375;-91
2022/08/04 14:05:27;;;;;;;;;2.00;2.00;;;;;33.65;34.00;101042.81;6102896;23;45108;-91
2022/08/04 14:08:17;;;;;;;;;4.00;4.00;;;;;33.56;34.33;101051.91;6154802;23;45208;-89
2022/08/04 14:10:53;;;;;;;;;2.00;2.00;;;;;33.51;34.55;101044.13;6129912;23;45234;-89
2022/08/04 14:13:29;;;;;;;;;2.00;2.00;;;;;33.44;34.11;101047.59;6153205;23;48532;-91
2022/08/04 14:16:14;;;;;;;;;2.00;2.00;;;;;33.45;34.22;101046.59;6169583;23;45555;-89
2022/08/04 14:18:43;;;;;;;;;2.33;2.33;;;;;33.47;34.53;101042.72;6146168;23;44847;-84
2022/08/04 14:21:30;;;;;;;;;3.00;3.00;;;;;33.56;34.46;101033.66;6170677;23;45676;-85
2022/08/04 14:23:57;;;;;;;;;3.33;3.33;;;;;33.63;34.37;101025.75;6148933;23;45290;-86
2022/08/04 14:26:32;;;;;;;;;4.33;3.67;;;;;33.77;34.13;101033.44;6122691;23;44941;-86
2022/08/04 14:29:16;;;;;;;;;4.00;4.00;;;;;33.82;34.02;101028.41;6128449;23;44663;-86
2022/08/04 14:32:03;;;;;;;;;2.33;2.33;;;;;33.80;33.71;101026.81;6149841;23;44840;-88
2022/08/04 14:34:31;;;;;;;;;3.00;3.00;;;;;33.89;33.49;101034.09;6144157;23;45327;-89
2022/08/04 14:37:11;;;;;;;;;3.33;3.00;;;;;33.87;33.54;101021.59;6149289;22;44769;-89
2022/08/04 14:39:46;;;;;;;;;4.00;3.00;;;;;33.85;33.72;101029.97;6149454;22;45024;-89
2022/08/04 14:42:41;;;;;;;;;2.00;2.00;;;;;33.82;33.36;101031.13;6150647;22;44833;-90
2022/08/04 14:45:08;;;;;;;;;3.67;3.00;;;;;33.75;33.63;101035.47;6149169;23;46880;-87
2022/08/04 14:47:46;;;;;;;;;2.67;2.67;;;;;33.64;33.65;101032.91;6173156;22;44720;-83
2022/08/04 14:50:13;;;;;;;;;4.00;2.00;;;;;33.53;33.75;101038.53;6149116;22;44695;-85
2022/08/04 14:52:39;;;;;;;;;3.00;3.00;;;;;33.54;33.64;101041.13;6170897;23;45570;-86
2022/08/04 14:55:38;;;;;;;;;4.00;4.00;;;;;33.53;33.65;101035.78;6147494;23;45345;-85
2022/08/04 14:58:31;;;;;;;;;4.00;4.00;;;;;33.43;33.31;101032.22;6122424;23;45386;-86
2022/08/04 15:01:02;;;;;;;;;3.00;3.00;;;;;33.24;33.46;101033.13;6148742;22;44705;-89
2022/08/04 15:03:56;;;;;;;;;2.00;2.00;;;;;33.01;33.66;101032.56;6123043;23;44852;-87
2022/08/04 15:06:44;;;;;;;;;4.00;3.00;;;;;32.87;33.53;101048.31;6123225;23;45283;-87
2022/08/04 15:09:11;;;;;;;;;3.75;3.75;;;;;32.65;33.73;101043.16;6121466;23;45444;-86
2022/08/04 15:11:38;;;;;;;;;3.33;2.67;;;;;32.51;34.01;101050.75;6145835;23;44837;-90
2022/08/04 15:14:04;;;;;;;;;3.00;3.00;;;;;32.41;34.22;101051.69;6121546;23;44719;-90
2022/08/04 15:16:34;;;;;;;;;2.67;2.67;;;;;32.20;34.31;101052.63;6144990;23;45308;-85
2022/08/04 15:19:05;;;;;;;;;5.00;4.00;;;;;32.15;34.81;101065.81;6130417;23;45424;-86
2022/08/04 15:21:31;;;;;;;;;3.00;3.00;;;;;32.06;34.64;101063.94;6121718;23;44785;-88
2022/08/04 15:23:58;;;;;;;;;3.33;3.33;;;;;31.94;34.91;101060.41;6147171;23;44807;-86
2022/08/04 15:26:50;;;;;;;;;5.00;3.00;;;;;31.85;35.27;101066.66;6145952;23;47027;-87
2022/08/04 15:29:30;;;;;;;;;2.33;2.33;;;;;31.69;35.54;101075.31;6120192;23;45321;-85
2022/08/04 15:31:58;;;;;;;;;3.67;3.67;;;;;31.54;35.64;101076.66;6146646;23;45444;-85
2022/08/04 15:34:24;;;;;;;;;3.00;3.00;;;;;31.44;35.94;101084.78;6144646;23;45638;-84
2022/08/04 15:37:11;;;;;;;;;4.33;4.33;;;;;31.28;36.50;101081.63;6145630;23;46185;-84
2022/08/04 15:39:51;;;;;;;;;3.67;3.67;;;;;31.09;36.62;101064.16;6123008;23;45223;-86
2022/08/04 15:42:30;;;;;;;;;3.00;3.00;;;;;31.02;37.17;101081.13;6145946;23;45355;-86
2022/08/04 15:45:28;;;;;;;;;6.33;5.00;;;;;30.88;37.53;101090.44;6144643;23;45291;-86
2022/08/04 15:48:02;;;;;;;;;3.00;3.00;;;;;30.73;37.63;101093.41;6146777;23;45240;-85
2022/08/04 15:50:30;;;;;;;;;5.00;4.00;;;;;30.62;38.01;101087.16;6146519;23;44789;-85
2022/08/04 15:52:55;;;;;;;;;5.00;4.67;;;;;30.49;38.28;101090.00;6170250;23;44759;-85
2022/08/04 15:55:38;;;;;;;;;5.67;4.67;;;;;30.38;38.31;101100.91;6170220;23;44764;-87
2022/08/04 15:58:06;;;;;;;;;4.75;4.75;;;;;30.31;38.71;101111.38;6146311;23;45328;-87
2022/08/04 16:00:46;;;;;;;;;6.00;4.75;;;;;30.23;38.92;101124.72;6121194;23;44734;-86
2022/08/04 16:03:46;;;;;;;;;5.00;5.00;;;;;30.16;39.59;101137.91;6145336;23;45417;-85
2022/08/04 16:06:12;;;;;;;;;3.67;3.67;;;;;30.08;39.36;101135.81;6114195;23;45919;-88
2022/08/04 16:08:50;;;;;;;;;6.00;5.00;;;;;30.00;39.76;101121.97;6146635;23;45500;-86
2022/08/04 16:11:21;;;;;;;;;5.33;4.67;;;;;29.96;39.81;101125.06;6170797;23;45177;-88
2022/08/04 16:14:08;;;;;;;;;4.50;4.50;;;;;29.92;39.44;101129.03;6170117;23;44851;-86
2022/08/04 16:16:40;;;;;;;;;2.67;2.67;;;;;29.86;39.84;101133.09;6167454;23;45361;-85
2022/08/04 16:19:08;;;;;;;;;5.00;5.00;;;;;29.77;40.32;101121.06;6159574;23;47227;-88
2022/08/04 16:21:45;;;;;;;;;7.00;5.00;;;;;29.71;41.23;101112.56;6107549;23;45255;-85
2022/08/04 16:24:21;;;;;;;;;7.00;5.00;;;;;29.67;41.18;101122.78;6158464;23;45429;-87
2022/08/04 16:26:54;;;;;;;;;6.00;6.00;;;;;29.52;41.33;101094.97;6117044;23;45880;-86
2022/08/04 16:29:26;;;;;;;;;7.00;6.00;;;;;29.45;42.50;101110.00;6115610;23;46785;-86
2022/08/04 16:32:17;;;;;;;;;5.33;5.33;;;;;29.33;44.08;101098.25;6170052;22;44789;-92
2022/08/04 16:35:04;;;;;;;;;;;;;;;;;;;;;
2022/08/04 16:38:37;;;;;;;;;;;;;;;;;;;;;
2022/08/04 16:41:16;;;;;;;;;;;;;;;;;;;;;
2022/08/04 16:44:37;;;;;;;;;;;;;;;;;;;;;
2022/08/04 16:47:48;;;;;;;;;6.33;6.00;;;;;28.34;47.67;101041.53;6145618;23;68935;-87
2022/08/04 16:50:43;;;;;;;;;7.00;7.00;;;;;28.21;48.90;101033.44;6146739;23;44777;-87
2022/08/04 16:53:36;;;;;;;;;7.00;6.25;;;;;28.09;49.90;101040.63;6120059;23;47154;-86
2022/08/04 16:56:35;;;;;;;;;6.00;5.67;;;;;27.99;49.69;101033.25;6139315;23;45153;-88
2022/08/04 16:59:46;;;;;;;;;6.00;6.00;;;;;27.97;50.04;101027.09;6143337;23;45101;-88
2022/08/04 17:02:43;;;;;;;;;;;;;;;;;;;;;
2022/08/04 17:05:40;;;;;;;;;;;;;;;;;;;;;
2022/08/04 17:08:07;;;;;;;;;7.00;7.00;;;;;27.89;50.09;101014.97;6122430;23;72057;-86
2022/08/04 17:10:39;;;;;;;;;7.50;6.75;;;;;27.84;50.08;101014.44;6145841;23;45479;-85
2022/08/04 17:13:28;;;;;;;;;6.00;5.75;;;;;27.77;50.45;101013.13;6145958;23;44753;-85
2022/08/04 17:16:26;;;;;;;;;6.33;5.33;;;;;27.67;50.64;100999.41;6146023;23;45222;-85
2022/08/04 17:19:15;;;;;;;;;6.75;6.75;;;;;27.67;51.16;100998.53;6120760;23;44781;-87
2022/08/04 17:21:53;;;;;;;;;10.00;6.75;;;;;27.60;51.65;101014.34;6138361;23;44781;-86
2022/08/04 17:24:30;;;;;;;;;8.00;6.75;;;;;27.64;51.16;101050.13;6143320;23;45316;-86
2022/08/04 17:26:57;;;;;;;;;6.50;6.50;;;;;27.67;51.44;101045.41;6143905;23;47365;-89
2022/08/04 17:29:35;;;;;;;;;9.75;9.00;;;;;27.76;51.20;101045.72;6144133;23;44766;-84
2022/08/04 17:32:02;;;;;;;;;12.25;9.00;;;;;27.91;51.46;101052.78;6143355;23;44746;-85